Time;durP1;ratioP1;P1;durP2;ratioP2;P2;SDS_P1;SDS_P2;PMS_P1;PMS_P2;Temp;Humidity;BMP_temperature;BMP_pressure;BME280_temperature;BME280_humidity;BME280_pressure;Samples;Min_cycle;Max_cycle;Signal;HPM_P1;HPM_P2
2022/01/29 00:01:01;;;;;;;25.67;10.23;;;7.50;99.90;;;;;;5094262;28;20066;-74
2022/01/29 00:03:27;;;;;;;30.03;11.50;;;7.50;99.90;;;;;;5094086;28;20573;-74
2022/01/29 00:05:53;;;;;;;27.17;10.90;;;7.50;99.90;;;;;;5094283;28;20051;-75
2022/01/29 00:08:19;;;;;;;35.17;12.27;;;7.50;99.90;;;;;;5092785;28;20385;-75
2022/01/29 00:10:48;;;;;;;28.57;11.50;;;;;;;;;;5094224;28;20304;-75
2022/01/29 00:13:14;;;;;;;30.53;10.77;;;7.40;99.90;;;;;;5093843;28;20289;-75
2022/01/29 00:15:40;;;;;;;33.03;11.93;;;7.40;99.90;;;;;;5093796;28;20282;-75
2022/01/29 00:18:06;;;;;;;32.57;12.10;;;7.40;99.90;;;;;;5092854;28;20122;-75
2022/01/29 00:20:33;;;;;;;28.80;11.57;;;7.40;99.90;;;;;;5093709;28;20087;-75
2022/01/29 00:22:58;;;;;;;30.87;10.50;;;7.40;99.90;;;;;;5093935;28;20812;-75
2022/01/29 00:25:24;;;;;;;31.57;11.50;;;7.40;99.90;;;;;;5093501;28;20366;-75
2022/01/29 00:27:52;;;;;;;37.03;11.07;;;7.40;99.90;;;;;;5093122;28;20075;-74
2022/01/29 00:30:18;;;;;;;35.13;10.90;;;7.40;99.90;;;;;;5093489;28;20040;-76
2022/01/29 00:32:45;;;;;;;29.00;10.50;;;7.40;99.90;;;;;;5093922;28;20282;-74
2022/01/29 00:35:11;;;;;;;27.10;11.25;;;7.40;99.90;;;;;;5093775;28;20282;-74
2022/01/29 00:37:36;;;;;;;34.47;11.67;;;7.40;99.90;;;;;;5093284;28;20073;-74
2022/01/29 00:40:04;;;;;;;30.40;11.40;;;7.40;99.90;;;;;;5093614;28;20278;-75
2022/01/29 00:42:29;;;;;;;30.17;11.27;;;7.40;99.90;;;;;;5093321;28;20048;-74
2022/01/29 00:44:55;;;;;;;32.30;11.50;;;7.40;99.90;;;;;;5093540;28;20331;-74
2022/01/29 00:47:21;;;;;;;35.67;12.57;;;7.40;99.90;;;;;;5075298;28;20044;-75
2022/01/29 00:49:47;;;;;;;31.83;12.40;;;7.40;99.90;;;;;;5075628;28;20047;-74
2022/01/29 00:52:13;;;;;;;30.47;11.57;;;7.40;99.90;;;;;;5093316;28;20062;-74
2022/01/29 00:54:39;;;;;;;34.40;11.63;;;7.40;99.90;;;;;;5093127;28;20075;-74
2022/01/29 00:57:05;;;;;;;34.13;12.10;;;7.40;99.90;;;;;;5092220;28;20734;-74
2022/01/29 00:59:32;;;;;;;30.87;12.07;;;7.50;99.90;;;;;;5092906;28;20037;-75
2022/01/29 01:01:58;;;;;;;25.83;12.07;;;7.40;99.90;;;;;;5093298;28;20282;-75
2022/01/29 01:04:23;;;;;;;25.27;11.20;;;7.40;99.90;;;;;;5091419;28;20095;-75
2022/01/29 01:06:49;;;;;;;38.63;12.53;;;7.50;99.90;;;;;;5093173;28;20054;-74
2022/01/29 01:09:15;;;;;;;36.80;12.77;;;7.50;99.90;;;;;;5093137;28;20118;-74
2022/01/29 01:11:40;;;;;;;33.13;11.30;;;7.50;99.90;;;;;;5058110;28;20048;-74
2022/01/29 01:14:06;;;;;;;31.13;11.17;;;7.50;99.90;;;;;;5092125;28;20040;-74
2022/01/29 01:16:32;;;;;;;31.37;11.93;;;7.50;99.90;;;;;;5092515;28;20055;-75
2022/01/29 01:18:59;;;;;;;27.17;11.50;;;7.50;99.90;;;;;;5091811;28;20079;-74
2022/01/29 01:21:25;;;;;;;38.90;12.23;;;7.50;99.90;;;;;;5092721;28;20097;-75
2022/01/29 01:23:51;;;;;;;40.47;11.93;;;7.50;99.90;;;;;;5092961;28;20040;-75
2022/01/29 01:26:18;;;;;;;34.43;12.17;;;7.50;99.90;;;;;;5093096;28;20136;-75
2022/01/29 01:28:43;;;;;;;31.88;12.10;;;7.60;99.90;;;;;;5092731;28;20119;-75
2022/01/29 01:31:09;;;;;;;30.60;10.37;;;7.60;99.90;;;;;;5092953;28;20487;-74
2022/01/29 01:33:35;;;;;;;31.50;10.73;;;7.60;99.90;;;;;;5092626;28;20067;-75
2022/01/29 01:36:04;;;;;;;31.10;11.00;;;7.60;99.90;;;;;;5093022;28;20067;-74
2022/01/29 01:38:39;;;;;;;28.53;10.60;;;7.60;99.90;;;;;;5093124;28;20048;-75
2022/01/29 01:41:09;;;;;;;;;;;7.70;99.90;;;;;;5097472;28;20281;-74
2022/01/29 01:43:34;;;;;;;30.10;10.73;;;7.70;99.90;;;;;;5096604;28;20386;-74
2022/01/29 01:46:00;;;;;;;29.10;9.83;;;7.70;99.90;;;;;;5096950;28;20310;-75
2022/01/29 01:48:26;;;;;;;26.23;9.87;;;7.70;99.90;;;;;;5096750;28;20119;-76
2022/01/29 01:50:52;;;;;;;28.20;10.33;;;7.70;99.90;;;;;;5096858;28;20488;-74
2022/01/29 01:53:18;;;;;;;27.27;10.00;;;7.70;99.90;;;;;;5096810;28;20056;-74
2022/01/29 01:55:43;;;;;;;27.37;9.93;;;7.70;99.90;;;;;;5096399;28;20051;-74
2022/01/29 01:58:09;;;;;;;30.40;10.20;;;7.70;99.90;;;;;;5096599;28;20377;-74
2022/01/29 02:00:35;;;;;;;26.97;9.47;;;7.70;99.90;;;;;;5078545;28;20043;-75
2022/01/29 02:03:01;;;;;;;26.57;9.10;;;7.70;99.90;;;;;;5096819;28;20467;-74
2022/01/29 02:05:26;;;;;;;25.17;9.33;;;7.70;99.90;;;;;;5096565;28;20094;-77
2022/01/29 02:07:52;;;;;;;37.33;11.07;;;7.70;99.90;;;;;;5096524;28;20040;-75
2022/01/29 02:10:19;;;;;;;28.60;9.70;;;7.80;99.90;;;;;;5095568;28;20087;-74
2022/01/29 02:12:50;;;;;;;30.97;10.87;;;7.80;99.90;;;;;;5096210;28;20048;-75
2022/01/29 02:15:18;;;;;;;29.20;10.27;;;7.80;99.90;;;;;;5095486;28;20432;-75
2022/01/29 02:17:45;;;;;;;29.37;9.67;;;7.80;99.90;;;;;;5095022;28;20282;-75
2022/01/29 02:20:12;;;;;;;28.07;10.87;;;7.80;99.90;;;;;;5095399;28;20672;-75
2022/01/29 02:22:42;;;;;;;27.83;10.50;;;7.80;99.90;;;;;;5094658;28;20282;-75
2022/01/29 02:25:28;;;;;;;27.03;10.60;;;;;;;;;;5095917;28;20773;-75
2022/01/29 02:27:54;;;;;;;31.80;10.83;;;;;;;;;;5096036;28;20277;-75
2022/01/29 02:30:20;;;;;;;30.40;11.43;;;;;;;;;;5095000;28;20278;-74
2022/01/29 02:32:46;;;;;;;31.57;12.17;;;;;;;;;;5094654;28;20278;-74
2022/01/29 02:35:12;;;;;;;31.30;12.77;;;;;;;;;;5096041;28;20347;-74
2022/01/29 02:37:39;;;;;;;26.23;12.37;;;;;;;;;;5095690;28;20274;-74
2022/01/29 02:40:06;;;;;;;38.40;13.53;;;;;;;;;;5094882;28;20626;-74
2022/01/29 02:42:32;;;;;;;36.73;13.03;;;;;;;;;;5095710;28;20300;-79
2022/01/29 02:44:58;;;;;;;31.07;12.43;;;;;;;;;;5095789;28;20626;-74
2022/01/29 02:47:33;;;;;;;23.37;11.90;;;;;;;;;;5096018;28;20758;-74
2022/01/29 02:49:59;;;;;;;31.90;12.90;;;;;;;;;;5095331;28;20306;-74
2022/01/29 02:52:25;;;;;;;31.87;13.43;;;;;;;;;;5095430;28;20494;-74
2022/01/29 02:54:51;;;;;;;25.93;13.07;;;;;;;;;;5094060;28;20290;-73
2022/01/29 02:57:18;;;;;;;30.03;12.90;;;;;;;;;;5095831;28;20357;-74
2022/01/29 02:59:45;;;;;;;26.80;12.37;;;;;;;;;;5093997;28;20781;-74
2022/01/29 03:02:11;;;;;;;26.00;12.70;;;;;;;;;;5095838;28;20282;-74
2022/01/29 03:04:37;;;;;;;32.23;13.17;;;;;;;;;;5095150;28;20281;-75
2022/01/29 03:07:03;;;;;;;31.33;12.93;;;;;;;;;;5095425;28;20274;-74
2022/01/29 03:09:29;;;;;;;26.67;12.57;;;;;;;;;;5095281;28;20270;-74
2022/01/29 03:11:56;;;;;;;31.27;11.83;;;;;;;;;;5095041;28;20285;-74
2022/01/29 03:14:22;;;;;;;36.53;12.77;;;;;;;;;;5094907;28;20793;-74
2022/01/29 03:16:49;;;;;;;31.03;13.10;;;;;;;;;;5093939;28;20369;-74
2022/01/29 03:19:15;;;;;;;30.80;12.43;;;;;;;;;;5093908;28;20796;-74
2022/01/29 03:21:41;;;;;;;28.50;12.50;;;;;;;;;;5094597;28;20753;-74
2022/01/29 03:24:07;;;;;;;29.13;13.20;;;;;;;;;;5095109;28;20339;-74
2022/01/29 03:26:33;;;;;;;36.00;13.90;;;;;;;;;;5095068;28;20278;-74
2022/01/29 03:28:59;;;;;;;26.97;11.40;;;;;;;;;;5094671;28;20274;-74
2022/01/29 03:31:26;;;;;;;31.77;13.57;;;;;;;;;;5093968;28;20347;-74
2022/01/29 03:33:52;;;;;;;31.10;12.97;;;;;;;;;;5093762;28;20294;-74
2022/01/29 03:36:19;;;;;;;33.07;12.50;;;;;;;;;;5093853;28;20750;-74
2022/01/29 03:38:45;;;;;;;32.23;12.80;;;;;;;;;;5094788;28;20367;-74
2022/01/29 03:41:13;;;;;;;31.27;13.30;;;;;;;;;;5094771;28;20274;-74
2022/01/29 03:43:46;;;;;;;33.43;13.27;;;;;;;;;;5094396;28;20296;-74
2022/01/29 03:46:13;;;;;;;30.80;12.93;;;;;;;;;;5094690;28;20277;-74
2022/01/29 03:48:39;;;;;;;35.60;14.33;;;8.20;99.90;;;;;;5094512;28;20672;-76
2022/01/29 03:51:05;;;;;;;36.30;15.27;;;8.20;99.90;;;;;;5093460;28;20371;-74
2022/01/29 03:53:31;;;;;;;26.90;13.40;;;8.10;99.90;;;;;;5076371;28;20298;-74
2022/01/29 03:55:56;;;;;;;28.70;13.50;;;8.10;99.90;;;;;;5094218;28;20052;-74
2022/01/29 03:58:22;;;;;;;37.07;15.27;;;8.20;99.90;;;;;;5094431;28;20036;-74
2022/01/29 04:00:48;;;;;;;30.43;14.43;;;8.10;99.90;;;;;;5092971;28;20052;-74
2022/01/29 04:03:14;;;;;;;32.93;14.73;;;8.10;99.90;;;;;;5094855;28;20040;-74
2022/01/29 04:05:40;;;;;;;34.37;13.47;;;8.20;99.90;;;;;;5093175;28;20036;-81
2022/01/29 04:08:13;;;;;;;32.80;14.83;;;8.20;99.90;;;;;;5093914;28;20374;-74
2022/01/29 04:10:38;;;;;;;32.70;14.63;;;8.20;99.90;;;;;;5094269;28;20044;-74
2022/01/29 04:13:05;;;;;;;29.53;13.47;;;8.20;99.90;;;;;;5093896;28;20285;-74
2022/01/29 04:15:31;;;;;;;24.60;13.77;;;8.20;99.90;;;;;;5094154;28;20051;-74
2022/01/29 04:17:57;;;;;;;31.83;14.30;;;8.20;99.90;;;;;;5093452;28;20278;-74
2022/01/29 04:20:23;;;;;;;29.23;13.50;;;8.20;99.90;;;;;;5093127;28;20040;-74
2022/01/29 04:22:48;;;;;;;30.67;14.17;;;8.20;99.90;;;;;;5092754;28;20093;-74
2022/01/29 04:25:14;;;;;;;30.77;14.73;;;8.20;99.90;;;;;;5094273;28;20803;-74
2022/01/29 04:27:43;;;;;;;29.23;13.27;;;8.20;99.90;;;;;;5093959;28;20047;-74
2022/01/29 04:30:15;;;;;;;33.00;14.37;;;8.20;99.90;;;;;;5092942;28;20052;-74
2022/01/29 04:35:07;;;;;;;28.33;14.23;;;8.30;99.90;;;;;;5093506;28;20313;-74
2022/01/29 04:37:32;;;;;;;31.00;14.97;;;8.30;99.90;;;;;;5093733;28;20116;-74
2022/01/29 04:39:58;;;;;;;35.57;14.83;;;8.30;99.90;;;;;;5093257;28;20377;-74
2022/01/29 04:42:24;;;;;;;31.70;13.37;;;;;;;;;;5093764;28;20044;-74
2022/01/29 04:44:50;;;;;;;30.47;15.13;;;;;;;;;;5093346;28;20127;-74
2022/01/29 04:47:16;;;;;;;29.83;13.83;;;;;;;;;;5093761;28;20274;-74
2022/01/29 04:49:42;;;;;;;32.53;13.63;;;;;;;;;;5093520;28;20331;-74
2022/01/29 04:52:08;;;;;;;27.03;13.13;;;;;;;;;;5092961;28;20339;-73
2022/01/29 04:54:35;;;;;;;35.50;14.30;;;;;;;;;;5093524;28;20392;-74
2022/01/29 04:57:01;;;;;;;25.20;13.50;;;;;;;;;;5092111;28;20797;-74
2022/01/29 04:59:27;;;;;;;24.57;13.87;;;;;;;;;;5093306;28;20317;-74
2022/01/29 05:01:53;;;;;;;24.57;13.57;;;;;;;;;;5091861;28;20336;-74
2022/01/29 05:04:19;;;;;;;28.33;14.00;;;;;;;;;;5093398;28;20280;-74
2022/01/29 05:06:45;;;;;;;29.20;13.87;;;;;;;;;;5093222;28;20278;-74
2022/01/29 05:09:11;;;;;;;29.40;13.30;;;;;;;;;;5093167;28;20369;-74
2022/01/29 05:11:38;;;;;;;28.73;13.43;;;;;;;;;;5093422;28;20302;-74
2022/01/29 05:14:07;;;;;;;25.10;13.47;;;;;;;;;;5092504;28;20751;-74
2022/01/29 05:16:57;;;;;;;23.57;13.97;;;;;;;;;;5093307;28;20293;-74
2022/01/29 05:27:36;;;;;;;24.55;13.10;;;;;;;;;;5093263;28;20270;-74
2022/01/29 05:30:03;;;;;;;23.50;12.30;;;;;;;;;;5092762;28;20131;-74
2022/01/29 05:32:29;;;;;;;22.90;12.93;;;;;;;;;;5092942;28;20815;-74
2022/01/29 05:34:55;;;;;;;23.30;12.43;;;;;;;;;;5092663;28;20318;-74
2022/01/29 05:37:21;;;;;;;27.33;13.03;;;;;;;;;;5092933;28;20332;-74
2022/01/29 05:39:47;;;;;;;25.17;13.20;;;;;;;;;;5091634;28;20298;-74
2022/01/29 05:42:13;;;;;;;24.40;12.87;;;;;;;;;;5091462;28;20306;-74
2022/01/29 05:44:39;;;;;;;23.97;12.63;;;;;;;;;;5075130;28;20290;-74
2022/01/29 05:47:05;;;;;;;20.77;11.90;;;;;;;;;;5091638;28;20285;-74
2022/01/29 05:49:31;;;;;;;25.57;12.90;;;;;;;;;;5092864;28;20356;-74
2022/01/29 05:51:57;;;;;;;23.17;12.20;;;;;;;;;;5092307;28;20278;-73
2022/01/29 05:54:23;;;;;;;23.07;12.90;;;;;;;;;;5091762;28;20278;-74
2022/01/29 05:56:49;;;;;;;22.27;11.27;;;;;;;;;;5091888;28;20338;-74
2022/01/29 05:59:15;;;;;;;26.60;12.63;;;;;;;;;;5092511;28;20297;-74
2022/01/29 06:01:42;;;;;;;22.53;12.97;;;;;;;;;;5091781;28;20617;-74
2022/01/29 06:04:08;;;;;;;20.23;12.37;;;;;;;;;;5092432;28;20361;-74
2022/01/29 06:06:34;;;;;;;20.67;12.30;;;;;;;;;;5092705;28;20285;-74
2022/01/29 06:09:04;;;;;;;24.83;12.33;;;;;;;;;;5092362;28;20270;-74
2022/01/29 06:11:30;;;;;;;23.70;12.23;;;;;;;;;;5092746;28;20301;-74
2022/01/29 06:13:56;;;;;;;20.87;11.20;;;;;;;;;;5091352;28;20751;-74
2022/01/29 06:16:22;;;;;;;24.93;12.40;;;;;;;;;;5091525;28;20282;-74
2022/01/29 06:18:48;;;;;;;19.60;12.10;;;;;;;;;;5092528;28;20381;-74
2022/01/29 06:21:15;;;;;;;22.20;11.60;;;;;;;;;;5092239;28;20769;-74
2022/01/29 06:23:42;;;;;;;17.13;10.40;;;;;;;;;;5092517;28;20313;-74
2022/01/29 06:26:09;;;;;;;22.33;12.20;;;;;;;;;;5093714;28;20306;-74
2022/01/29 06:28:36;;;;;;;25.77;12.10;;;;;;;;;;5095079;28;20323;-74
2022/01/29 06:31:02;;;;;;;20.27;11.43;;;;;;;;;;5094949;28;20278;-74
2022/01/29 06:33:29;;;;;;;19.70;11.80;;;;;;;;;;5095273;28;20342;-74
2022/01/29 06:35:55;;;;;;;18.77;10.93;;;;;;;;;;5096026;28;20278;-77
2022/01/29 06:38:21;;;;;;;27.30;11.80;;;;;;;;;;5095913;28;20297;-74
2022/01/29 06:40:47;;;;;;;21.87;10.90;;;;;;;;;;5096124;28;20282;-74
2022/01/29 06:43:13;;;;;;;23.27;12.10;;;;;;;;;;5095623;28;20278;-74
2022/01/29 06:45:40;;;;;;;20.27;10.93;;;;;;;;;;5095884;28;20278;-74
2022/01/29 06:48:06;;;;;;;18.87;11.90;;;;;;;;;;5095573;28;20362;-74
2022/01/29 06:50:33;;;;;;;24.07;11.90;;;;;;;;;;5095135;28;20278;-74
2022/01/29 06:52:59;;;;;;;25.70;11.80;;;;;;;;;;5095492;28;20323;-74
2022/01/29 06:55:25;;;;;;;20.70;10.53;;;;;;;;;;5095894;28;20300;-74
2022/01/29 06:57:51;;;;;;;21.50;11.20;;;;;;;;;;5095657;28;20277;-74
2022/01/29 07:00:17;;;;;;;21.63;10.23;;;;;;;;;;5094112;28;20322;-74
2022/01/29 07:02:44;;;;;;;18.30;10.77;;;;;;;;;;5095752;28;20365;-74
2022/01/29 07:05:11;;;;;;;24.07;10.77;;;;;;;;;;5094267;28;20772;-74
2022/01/29 07:07:37;;;;;;;21.00;10.90;;;;;;;;;;5094278;28;20325;-74
2022/01/29 07:10:04;;;;;;;21.40;10.20;;;;;;;;;;5095099;28;20327;-74
2022/01/29 07:12:30;;;;;;;18.07;10.27;;;;;;;;;;5095376;28;20357;-74
2022/01/29 07:14:56;;;;;;;20.70;10.70;;;;;;;;;;5095361;28;20357;-74
2022/01/29 07:17:24;;;;;;;18.60;10.93;;;;;;;;;;5094018;28;20691;-74
2022/01/29 07:19:51;;;;;;;19.23;9.70;;;;;;;;;;5095135;28;20298;-74
2022/01/29 07:22:17;;;;;;;18.50;9.60;;;;;;;;;;5094904;28;20274;-74
2022/01/29 07:24:43;;;;;;;18.03;9.83;;;;;;;;;;5095016;28;20769;-74
2022/01/29 07:27:10;;;;;;;18.67;9.90;;;;;;;;;;5094791;28;20309;-74
2022/01/29 07:29:36;;;;;;;19.33;10.70;;;;;;;;;;5093895;28;20278;-74
2022/01/29 07:32:04;;;;;;;17.93;9.27;;;;;;;;;;5094653;28;20274;-76
2022/01/29 07:34:30;;;;;;;18.27;9.60;;;;;;;;;;5093894;28;20286;-74
2022/01/29 07:36:57;;;;;;;23.03;10.33;;;;;;;;;;5094622;28;20278;-74
2022/01/29 07:39:23;;;;;;;20.47;9.87;;;;;;;;;;5094447;28;20298;-74
2022/01/29 07:41:50;;;;;;;24.00;9.73;;;;;;;;;;5094794;28;20318;-74
2022/01/29 07:44:16;;;;;;;24.53;9.77;;;;;;;;;;5093234;28;20289;-74
2022/01/29 07:46:42;;;;;;;22.93;10.03;;;;;;;;;;5093780;28;20295;-74
2022/01/29 07:49:09;;;;;;;17.73;8.23;;;;;;;;;;5094427;28;20305;-74
2022/01/29 07:51:35;;;;;;;15.17;8.50;;;;;;;;;;5094728;28;20333;-73
2022/01/29 07:54:01;;;;;;;18.67;8.87;;;;;;;;;;5093289;28;20294;-74
2022/01/29 07:56:27;;;;;;;19.07;9.50;;;;;;;;;;5094144;28;20290;-74
2022/01/29 07:58:53;;;;;;;18.77;9.47;;;;;;;;;;5094483;28;20377;-74
2022/01/29 08:01:19;;;;;;;18.90;8.80;;;;;;;;;;5094205;28;20331;-74
2022/01/29 08:03:50;;;;;;;17.90;8.80;;;;;;;;;;5094310;28;20290;-74
2022/01/29 08:06:17;;;;;;;21.27;8.27;;;;;;;;;;5094326;28;20371;-73
2022/01/29 08:08:44;;;;;;;19.73;8.53;;;;;;;;;;5094161;28;20626;-74
2022/01/29 08:11:10;;;;;;;19.93;8.07;;;;;;;;;;5093874;28;20274;-74
2022/01/29 08:13:36;;;;;;;20.00;7.70;;;;;;;;;;5093531;28;20627;-74
2022/01/29 08:16:03;;;;;;;19.13;7.73;;;;;;;;;;5094237;28;20278;-74
2022/01/29 08:18:29;;;;;;;18.67;8.27;;;;;;;;;;5093668;28;20290;-74
2022/01/29 08:20:56;;;;;;;16.30;8.43;;;;;;;;;;5094043;28;20305;-73
2022/01/29 08:23:22;;;;;;;19.63;7.63;;;;;;;;;;5092620;28;20332;-76
2022/01/29 08:25:48;;;;;;;18.03;8.10;;;;;;;;;;5093943;28;20361;-75
2022/01/29 08:28:14;;;;;;;16.40;7.37;;;;;;;;;;5093554;28;20776;-74
2022/01/29 08:30:41;;;;;;;14.57;6.70;;;;;;;;;;5093837;28;20278;-74
2022/01/29 08:33:07;;;;;;;18.80;7.20;;;;;;;;;;5094145;28;20688;-74
2022/01/29 08:35:34;;;;;;;21.90;7.90;;;;;;;;;;5094013;28;20313;-72
2022/01/29 08:38:00;;;;;;;17.50;7.20;;;;;;;;;;5093721;28;20283;-73
2022/01/29 08:40:26;;;;;;;15.03;7.00;;;;;;;;;;5093418;28;20282;-73
2022/01/29 08:42:53;;;;;;;16.40;5.73;;;;;;;;;;5093920;28;20286;-73
2022/01/29 08:45:19;;;;;;;15.93;6.13;;;;;;;;;;5092268;28;20278;-73
2022/01/29 08:47:45;;;;;;;16.43;5.10;;;;;;;;;;5093554;28;20672;-73
2022/01/29 08:50:12;;;;;;;16.00;5.80;;;;;;;;;;5091650;28;20310;-73
2022/01/29 08:52:38;;;;;;;11.33;4.87;;;;;;;;;;5093567;28;20286;-72
2022/01/29 08:55:06;;;;;;;17.33;5.23;;;;;;;;;;5093637;28;20278;-73
2022/01/29 08:57:32;;;;;;;15.17;4.90;;;;;;;;;;5093152;28;20292;-73
2022/01/29 08:59:58;;;;;;;14.13;5.37;;;;;;;;;;5093424;28;20366;-73
2022/01/29 09:02:24;;;;;;;12.30;4.37;;;;;;;;;;5093143;28;20289;-73
2022/01/29 09:04:52;;;;;;;13.43;5.33;;;;;;;;;;5093207;28;20804;-73
2022/01/29 09:07:18;;;;;;;15.77;5.33;;;;;;;;;;5093074;28;20270;-73
2022/01/29 09:09:45;;;;;;;12.07;4.90;;;;;;;;;;5093334;28;20274;-73
2022/01/29 09:12:12;;;;;;;15.20;5.90;;;;;;;;;;5092309;28;20312;-79
2022/01/29 09:14:38;;;;;;;14.03;4.67;;;;;;;;;;5092289;28;20294;-74
2022/01/29 09:17:05;;;;;;;14.57;5.00;;;;;;;;;;5093291;28;20310;-74
2022/01/29 09:19:31;;;;;;;15.37;4.23;;;;;;;;;;5092831;28;20294;-73
2022/01/29 09:21:57;;;;;;;13.90;5.10;;;;;;;;;;5092926;28;20796;-73
2022/01/29 09:24:23;;;;;;;12.60;3.90;;;;;;;;;;5092790;28;20678;-73
2022/01/29 09:26:49;;;;;;;13.50;4.27;;;;;;;;;;5091875;28;20274;-73
2022/01/29 09:29:15;;;;;;;15.20;4.17;;;;;;;;;;5092753;28;20285;-73
2022/01/29 09:31:41;;;;;;;13.83;4.17;;;;;;;;;;5093383;28;20621;-73
2022/01/29 09:34:08;;;;;;;14.13;4.17;;;;;;;;;;5091982;28;20275;-73
2022/01/29 09:36:34;;;;;;;18.00;4.07;;;;;;;;;;5092724;28;20289;-73
2022/01/29 09:39:00;;;;;;;14.67;4.10;;;;;;;;;;5091743;28;20290;-73
2022/01/29 09:41:27;;;;;;;14.23;4.00;;;;;;;;;;5092649;28;20278;-73
2022/01/29 09:43:54;;;;;;;14.80;3.80;;;;;;;;;;5092962;28;20354;-72
2022/01/29 09:46:20;;;;;;;12.37;3.07;;;;;;;;;;5092646;28;20281;-73
2022/01/29 09:48:46;;;;;;;15.83;3.30;;;;;;;;;;5092819;28;20282;-72
2022/01/29 09:51:13;;;;;;;13.37;3.30;;;;;;;;;;5091791;28;20286;-72
2022/01/29 09:53:43;;;;;;;13.20;3.67;;;;;;;;;;5092227;28;20302;-72
2022/01/29 09:56:09;;;;;;;12.57;2.93;;;;;;;;;;5092830;28;20318;-72
2022/01/29 09:58:35;;;;;;;15.90;3.70;;;;;;;;;;5092458;28;20328;-73
2022/01/29 10:01:01;;;;;;;13.60;3.30;;;;;;;;;;5095939;28;20288;-73
2022/01/29 10:03:27;;;;;;;11.63;2.80;;;;;;;;;;5096605;28;20329;-73
2022/01/29 10:05:54;;;;;;;10.63;3.20;;;;;;;;;;5096822;28;20357;-73
2022/01/29 10:08:21;;;;;;;15.10;3.50;;;;;;;;;;5096171;28;20630;-74
2022/01/29 10:10:52;;;;;;;13.60;2.87;;;;;;;;;;5096701;28;20308;-73
2022/01/29 10:13:27;;;;;;;13.20;2.67;;;;;;;;;;5096375;28;20343;-81
2022/01/29 10:15:53;;;;;;;;;;;;;;;;;;5096934;28;20282;-75
2022/01/29 10:18:21;;;;;;;13.17;3.13;;;;;;;;;;5096121;28;19920;-78
2022/01/29 10:20:47;;;;;;;12.37;2.73;;;;;;;;;;5095507;28;20403;-73
2022/01/29 10:23:13;;;;;;;11.50;3.33;;;;;;;;;;5095490;28;20691;-74
2022/01/29 10:25:43;;;;;;;12.87;2.70;;;;;;;;;;5094764;28;21085;-74
2022/01/29 10:28:16;;;;;;;10.80;2.70;;;;;;;;;;5096250;28;20789;-73
2022/01/29 10:30:48;;;;;;;12.50;2.70;;;;;;;;;;5095957;28;20376;-73
2022/01/29 10:33:42;;;;;;;17.10;3.07;;;;;;;;;;5096081;28;20322;-72
2022/01/29 10:36:09;;;;;;;9.97;2.37;;;;;;;;;;5093736;28;20290;-79
2022/01/29 10:38:42;;;;;;;15.40;3.30;;;;;;;;;;5094698;28;20310;-78
2022/01/29 10:41:12;;;;;;;13.93;2.80;;;;;;;;;;5096371;28;20714;-78
2022/01/29 10:43:54;;;;;;;13.73;2.90;;;;;;;;;;5096043;28;20294;-79
2022/01/29 10:46:30;;;;;;;9.67;2.50;;;;;;;;;;5096052;28;20270;-78
2022/01/29 10:48:57;;;;;;;17.33;3.37;;;;;;;;;;5095177;28;20301;-77
2022/01/29 10:51:23;;;;;;;13.83;2.83;;;;;;;;;;5094805;28;20357;-82
2022/01/29 10:53:51;;;;;;;10.53;2.20;;;;;;;;;;5077855;28;20305;-79
2022/01/29 10:56:18;;;;;;;15.00;2.50;;;;;;;;;;5094845;28;20329;-80
2022/01/29 10:58:45;;;;;;;15.27;2.53;;;;;;;;;;5094064;28;20313;-78
2022/01/29 11:01:22;;;;;;;10.97;2.97;;;;;;;;;;5095683;28;20306;-80
2022/01/29 11:03:52;;;;;;;11.60;2.57;;;;;;;;;;5095397;28;20342;-78
2022/01/29 11:06:21;;;;;;;14.03;2.43;;;10.30;99.90;;;;;;5095751;28;20274;-80
2022/01/29 11:08:47;;;;;;;12.90;2.60;;;10.40;99.90;;;;;;5094077;28;20331;-77
2022/01/29 11:11:14;;;;;;;16.53;3.07;;;10.40;99.90;;;;;;5094697;28;20286;-78
2022/01/29 11:13:42;;;;;;;15.30;3.20;;;10.30;99.90;;;;;;5095111;28;20285;-78
2022/01/29 11:16:09;;;;;;;16.27;3.57;;;10.30;99.90;;;;;;5095471;28;20286;-77
2022/01/29 11:18:35;;;;;;;14.50;2.57;;;10.30;99.90;;;;;;5094017;28;20302;-79
2022/01/29 11:21:02;;;;;;;11.07;2.67;;;10.30;99.90;;;;;;5095285;28;20395;-78
2022/01/29 11:23:29;;;;;;;13.60;2.20;;;10.30;99.90;;;;;;5094106;28;20044;-81
2022/01/29 11:25:57;;;;;;;9.70;2.43;;;10.30;99.90;;;;;;5095265;28;20387;-78
2022/01/29 11:28:28;;;;;;;12.07;3.00;;;10.30;99.90;;;;;;5095225;28;20599;-78
2022/01/29 11:31:14;;;;;;;9.43;2.50;;;10.40;99.90;;;;;;5094895;28;20282;-78
2022/01/29 11:33:58;;;;;;;8.13;2.10;;;10.40;99.90;;;;;;5094650;28;20282;-75
2022/01/29 11:36:47;;;;;;;9.37;2.10;;;10.50;99.90;;;;;;5094863;28;20282;-78
2022/01/29 11:39:24;;;;;;;10.83;2.00;;;10.50;99.90;;;;;;5094757;28;20302;-79
2022/01/29 11:42:15;;;;;;;10.73;1.77;;;10.50;99.90;;;;;;5093642;28;20352;-79
2022/01/29 11:44:42;;;;;;;7.90;1.93;;;10.60;99.90;;;;;;5094376;28;20325;-78
2022/01/29 11:47:24;;;;;;;14.73;2.53;;;10.70;99.90;;;;;;5093674;28;20293;-78
2022/01/29 11:49:51;;;;;;;9.87;2.30;;;10.70;99.90;;;;;;5094337;28;20729;-82
2022/01/29 11:52:22;;;;;;;10.60;2.10;;;10.70;99.90;;;;;;5093820;28;20615;-82
2022/01/29 11:55:07;;;;;;;13.27;2.70;;;10.70;99.90;;;;;;5075789;28;20305;-85
2022/01/29 11:57:33;;;;;;;10.07;2.30;;;10.70;99.90;;;;;;5094460;28;20290;-76
2022/01/29 12:00:35;;;;;;;11.23;1.90;;;10.70;99.90;;;;;;5094255;28;20043;-74
2022/01/29 12:03:00;;;;;;;16.33;2.30;;;10.80;99.90;;;;;;5094651;28;20044;-74
2022/01/29 12:05:30;;;;;;;11.73;3.33;;;10.80;99.90;;;;;;5094336;28;20275;-73
2022/01/29 12:08:17;;;;;;;11.37;2.83;;;10.80;99.90;;;;;;5094464;28;20127;-74
2022/01/29 12:10:52;;;;;;;9.53;2.23;;;10.80;99.90;;;;;;5093827;28;20270;-74
2022/01/29 12:13:18;;;;;;;;;;;10.80;99.90;;;;;;5093466;28;20274;-75
2022/01/29 12:15:44;;;;;;;11.57;2.60;;;10.80;99.90;;;;;;5093841;28;19942;-74
2022/01/29 12:18:32;;;;;;;8.80;2.13;;;10.80;99.90;;;;;;5094325;28;20361;-76
2022/01/29 12:21:00;;;;;;;12.33;2.20;;;10.80;99.90;;;;;;5094138;28;20059;-76
2022/01/29 12:23:26;;;;;;;18.20;3.00;;;10.80;99.90;;;;;;5091674;28;20911;-80
2022/01/29 12:25:54;;;;;;;13.50;2.33;;;10.80;99.90;;;;;;5093437;28;20339;-80
2022/01/29 12:28:20;;;;;;;13.17;2.80;;;10.90;99.90;;;;;;5092852;28;20286;-80
2022/01/29 12:30:46;;;;;;;11.70;2.60;;;10.90;99.90;;;;;;5092793;28;20787;-83
2022/01/29 12:33:17;;;;;;;12.93;3.03;;;10.90;99.90;;;;;;5075955;28;20397;-82
2022/01/29 12:36:02;;;;;;;15.40;2.33;;;;;;;;;;5093591;28;20289;-83
2022/01/29 12:38:30;;;;;;;11.10;2.10;;;;;;;;;;5092846;28;20658;-82
2022/01/29 12:40:56;;;;;;;11.60;2.80;;;;;;;;;;5092439;28;20339;-83
2022/01/29 12:43:22;;;;;;;11.47;2.43;;;;;;;;;;5093798;28;20275;-83
2022/01/29 12:45:50;;;;;;;14.77;3.30;;;;;;;;;;5093438;28;20286;-82
2022/01/29 12:48:17;;;;;;;16.77;3.30;;;;;;;;;;5093614;28;20282;-83
2022/01/29 12:50:44;;;;;;;14.60;3.03;;;;;;;;;;5093418;28;20286;-82
2022/01/29 12:53:11;;;;;;;7.27;2.13;;;;;;;;;;5093443;28;20316;-80
2022/01/29 12:55:38;;;;;;;14.07;3.03;;;;;;;;;;5093273;28;20290;-82
2022/01/29 12:58:05;;;;;;;14.80;3.03;;;;;;;;;;5092317;28;20309;-75
2022/01/29 13:00:31;;;;;;;10.60;2.10;;;;;;;;;;5093370;28;20278;-74
2022/01/29 13:03:08;;;;;;;10.43;2.13;;;;;;;;;;5093069;28;20286;-76
2022/01/29 13:05:44;;;;;;;9.77;2.00;;;;;;;;;;5093455;28;20274;-74
2022/01/29 13:08:12;;;;;;;11.57;2.40;;;;;;;;;;5093262;28;20285;-73
2022/01/29 13:10:38;;;;;;;11.67;2.60;;;;;;;;;;5093060;28;20274;-81
2022/01/29 13:13:04;;;;;;;10.33;2.67;;;;;;;;;;5093261;28;20286;-73
2022/01/29 13:15:34;;;;;;;12.93;2.43;;;;;;;;;;5092166;28;20282;-73
2022/01/29 13:18:00;;;;;;;12.50;2.30;;;;;;;;;;5093097;28;20332;-73
2022/01/29 13:20:27;;;;;;;13.77;2.50;;;;;;;;;;5093289;28;20684;-73
2022/01/29 13:22:53;;;;;;;9.93;1.83;;;;;;;;;;5093184;28;20389;-73
2022/01/29 13:25:20;;;;;;;9.80;2.13;;;;;;;;;;5093212;28;20281;-73
2022/01/29 13:27:52;;;;;;;13.97;2.43;;;;;;;;;;5093004;28;20321;-73
2022/01/29 13:30:18;;;;;;;9.30;2.57;;;;;;;;;;5093556;28;20672;-73
2022/01/29 13:32:45;;;;;;;11.03;1.90;;;;;;;;;;5092906;28;20316;-73
2022/01/29 13:35:22;;;;;;;15.80;3.27;;;;;;;;;;5095017;28;20286;-73
2022/01/29 13:37:50;;;;;;;11.73;2.20;;;;;;;;;;5097371;28;20630;-73
2022/01/29 13:40:20;;;;;;;9.67;2.17;;;;;;;;;;5096397;28;20340;-73
2022/01/29 13:42:56;;;;;;;12.77;2.50;;;;;;;;;;5097140;28;20738;-73
2022/01/29 13:45:23;;;;;;;11.40;2.00;;;;;;;;;;5097417;28;20282;-73
2022/01/29 13:48:05;;;;;;;8.40;2.40;;;;;;;;;;5097000;28;20336;-73
2022/01/29 13:50:33;;;;;;;10.30;1.90;;;;;;;;;;5096788;28;20845;-73
2022/01/29 13:53:01;;;;;;;11.00;2.63;;;;;;;;;;5096234;28;20770;-73
2022/01/29 13:55:27;;;;;;;10.70;2.00;;;;;;;;;;5096328;28;20286;-73
2022/01/29 13:58:00;;;;;;;10.97;2.07;;;;;;;;;;5096799;28;20283;-73
2022/01/29 14:00:26;;;;;;;12.90;2.50;;;;;;;;;;5096892;28;20334;-73